sensor_id;sensor_type;location;lat;lon;timestamp;P1;durP1;ratioP1;P2;durP2;ratioP2
41921;SDS011;27609;51.002;5.354;2022-07-10T00:01:55;4.63;;;1.90;;
41921;SDS011;27609;51.002;5.354;2022-07-10T00:04:21;4.30;;;1.90;;
41921;SDS011;27609;51.002;5.354;2022-07-10T00:06:47;5.75;;;2.10;;
41921;SDS011;27609;51.002;5.354;2022-07-10T00:09:13;5.28;;;2.22;;
41921;SDS011;27609;51.002;5.354;2022-07-10T00:11:42;2.88;;;1.88;;
41921;SDS011;27609;51.002;5.354;2022-07-10T00:14:11;4.20;;;2.17;;
41921;SDS011;27609;51.002;5.354;2022-07-10T00:16:40;6.03;;;2.15;;
41921;SDS011;27609;51.002;5.354;2022-07-10T00:19:06;4.13;;;2.00;;
41921;SDS011;27609;51.002;5.354;2022-07-10T00:21:32;7.07;;;2.20;;
41921;SDS011;27609;51.002;5.354;2022-07-10T00:24:00;4.95;;;2.08;;
41921;SDS011;27609;51.002;5.354;2022-07-10T00:26:35;7.07;;;2.20;;
41921;SDS011;27609;51.002;5.354;2022-07-10T00:29:01;5.75;;;1.92;;
41921;SDS011;27609;51.002;5.354;2022-07-10T00:31:27;5.90;;;2.10;;
41921;SDS011;27609;51.002;5.354;2022-07-10T00:33:53;5.75;;;2.42;;
41921;SDS011;27609;51.002;5.354;2022-07-10T00:36:22;6.15;;;2.40;;
41921;SDS011;27609;51.002;5.354;2022-07-10T00:38:47;7.32;;;2.45;;
41921;SDS011;27609;51.002;5.354;2022-07-10T00:41:13;7.18;;;2.42;;
41921;SDS011;27609;51.002;5.354;2022-07-10T00:43:59;7.93;;;2.10;;
41921;SDS011;27609;51.002;5.354;2022-07-10T00:46:33;4.53;;;2.15;;
41921;SDS011;27609;51.002;5.354;2022-07-10T00:49:00;3.55;;;2.10;;
41921;SDS011;27609;51.002;5.354;2022-07-10T00:51:29;5.40;;;2.25;;
41921;SDS011;27609;51.002;5.354;2022-07-10T00:53:56;6.60;;;2.58;;
41921;SDS011;27609;51.002;5.354;2022-07-10T00:56:25;6.95;;;2.17;;
41921;SDS011;27609;51.002;5.354;2022-07-10T00:58:55;3.67;;;2.20;;
41921;SDS011;27609;51.002;5.354;2022-07-10T01:01:21;5.68;;;2.17;;
41921;SDS011;27609;51.002;5.354;2022-07-10T01:03:50;8.45;;;2.50;;
41921;SDS011;27609;51.002;5.354;2022-07-10T01:06:16;6.10;;;2.50;;
41921;SDS011;27609;51.002;5.354;2022-07-10T01:08:44;5.80;;;2.50;;
41921;SDS011;27609;51.002;5.354;2022-07-10T01:11:11;4.03;;;2.33;;
41921;SDS011;27609;51.002;5.354;2022-07-10T01:13:42;8.13;;;2.78;;
41921;SDS011;27609;51.002;5.354;2022-07-10T01:16:09;7.00;;;2.30;;
41921;SDS011;27609;51.002;5.354;2022-07-10T01:18:36;5.45;;;2.13;;
41921;SDS011;27609;51.002;5.354;2022-07-10T01:21:02;5.43;;;2.97;;
41921;SDS011;27609;51.002;5.354;2022-07-10T01:23:31;6.85;;;2.67;;
41921;SDS011;27609;51.002;5.354;2022-07-10T01:25:57;7.70;;;2.75;;
41921;SDS011;27609;51.002;5.354;2022-07-10T01:28:23;8.30;;;2.60;;
41921;SDS011;27609;51.002;5.354;2022-07-10T01:30:54;5.88;;;2.65;;
41921;SDS011;27609;51.002;5.354;2022-07-10T01:33:21;6.10;;;2.47;;
41921;SDS011;27609;51.002;5.354;2022-07-10T01:35:49;8.50;;;2.90;;
41921;SDS011;27609;51.002;5.354;2022-07-10T01:38:16;6.47;;;2.80;;
41921;SDS011;27609;51.002;5.354;2022-07-10T01:40:42;4.55;;;2.90;;
41921;SDS011;27609;51.002;5.354;2022-07-10T01:43:07;5.70;;;2.75;;
41921;SDS011;27609;51.002;5.354;2022-07-10T01:45:36;7.78;;;2.75;;
41921;SDS011;27609;51.002;5.354;2022-07-10T01:48:02;6.68;;;2.42;;
41921;SDS011;27609;51.002;5.354;2022-07-10T01:50:30;6.97;;;2.92;;
41921;SDS011;27609;51.002;5.354;2022-07-10T01:52:59;8.68;;;3.08;;
41921;SDS011;27609;51.002;5.354;2022-07-10T01:55:25;4.25;;;2.65;;
41921;SDS011;27609;51.002;5.354;2022-07-10T01:57:51;4.38;;;2.60;;
41921;SDS011;27609;51.002;5.354;2022-07-10T02:00:17;6.57;;;3.80;;
41921;SDS011;27609;51.002;5.354;2022-07-10T02:02:43;11.45;;;3.83;;
41921;SDS011;27609;51.002;5.354;2022-07-10T02:05:29;4.97;;;3.10;;
41921;SDS011;27609;51.002;5.354;2022-07-10T02:07:55;7.43;;;3.78;;
41921;SDS011;27609;51.002;5.354;2022-07-10T02:10:21;3.60;;;3.30;;
41921;SDS011;27609;51.002;5.354;2022-07-10T02:12:46;6.45;;;3.20;;
41921;SDS011;27609;51.002;5.354;2022-07-10T02:15:12;8.18;;;4.03;;
41921;SDS011;27609;51.002;5.354;2022-07-10T02:17:39;6.22;;;3.20;;
41921;SDS011;27609;51.002;5.354;2022-07-10T02:20:05;6.60;;;3.10;;
41921;SDS011;27609;51.002;5.354;2022-07-10T02:22:31;4.53;;;2.85;;
41921;SDS011;27609;51.002;5.354;2022-07-10T02:24:57;5.93;;;2.95;;
41921;SDS011;27609;51.002;5.354;2022-07-10T02:27:23;8.07;;;3.17;;
41921;SDS011;27609;51.002;5.354;2022-07-10T02:29:49;4.88;;;3.15;;
41921;SDS011;27609;51.002;5.354;2022-07-10T02:32:15;5.90;;;3.17;;
41921;SDS011;27609;51.002;5.354;2022-07-10T02:34:40;7.03;;;3.25;;
41921;SDS011;27609;51.002;5.354;2022-07-10T02:37:06;5.13;;;3.17;;
41921;SDS011;27609;51.002;5.354;2022-07-10T02:39:32;7.90;;;3.22;;
41921;SDS011;27609;51.002;5.354;2022-07-10T02:41:58;11.15;;;3.90;;
41921;SDS011;27609;51.002;5.354;2022-07-10T02:44:24;8.85;;;3.70;;
41921;SDS011;27609;51.002;5.354;2022-07-10T02:46:50;8.43;;;3.30;;
41921;SDS011;27609;51.002;5.354;2022-07-10T02:49:16;8.35;;;3.00;;
41921;SDS011;27609;51.002;5.354;2022-07-10T02:51:42;5.90;;;2.95;;
41921;SDS011;27609;51.002;5.354;2022-07-10T02:54:08;6.18;;;2.97;;
41921;SDS011;27609;51.002;5.354;2022-07-10T02:56:34;7.43;;;3.28;;
41921;SDS011;27609;51.002;5.354;2022-07-10T02:59:02;5.68;;;3.35;;
41921;SDS011;27609;51.002;5.354;2022-07-10T03:01:28;8.02;;;3.00;;
41921;SDS011;27609;51.002;5.354;2022-07-10T03:03:55;5.93;;;3.47;;
41921;SDS011;27609;51.002;5.354;2022-07-10T03:06:21;8.93;;;3.30;;
41921;SDS011;27609;51.002;5.354;2022-07-10T03:08:46;6.68;;;3.30;;
41921;SDS011;27609;51.002;5.354;2022-07-10T03:11:12;4.75;;;3.13;;
41921;SDS011;27609;51.002;5.354;2022-07-10T03:13:38;5.05;;;3.13;;
41921;SDS011;27609;51.002;5.354;2022-07-10T03:16:04;7.93;;;3.17;;
41921;SDS011;27609;51.002;5.354;2022-07-10T03:18:30;8.13;;;3.25;;
41921;SDS011;27609;51.002;5.354;2022-07-10T03:20:56;6.72;;;3.90;;
41921;SDS011;27609;51.002;5.354;2022-07-10T03:23:22;7.32;;;3.50;;
41921;SDS011;27609;51.002;5.354;2022-07-10T03:25:48;7.82;;;3.70;;
41921;SDS011;27609;51.002;5.354;2022-07-10T03:28:14;6.72;;;3.33;;
41921;SDS011;27609;51.002;5.354;2022-07-10T03:30:39;7.10;;;3.30;;
41921;SDS011;27609;51.002;5.354;2022-07-10T03:33:05;7.32;;;3.15;;
41921;SDS011;27609;51.002;5.354;2022-07-10T03:35:31;6.63;;;2.80;;
41921;SDS011;27609;51.002;5.354;2022-07-10T03:37:57;6.85;;;2.70;;
41921;SDS011;27609;51.002;5.354;2022-07-10T03:40:23;6.70;;;3.45;;
41921;SDS011;27609;51.002;5.354;2022-07-10T03:42:49;7.30;;;2.58;;
41921;SDS011;27609;51.002;5.354;2022-07-10T03:45:15;6.32;;;3.10;;
41921;SDS011;27609;51.002;5.354;2022-07-10T03:47:41;4.28;;;2.90;;
41921;SDS011;27609;51.002;5.354;2022-07-10T03:50:06;5.70;;;3.13;;
41921;SDS011;27609;51.002;5.354;2022-07-10T03:52:32;6.78;;;3.40;;
41921;SDS011;27609;51.002;5.354;2022-07-10T03:54:58;4.93;;;2.80;;
41921;SDS011;27609;51.002;5.354;2022-07-10T03:57:24;5.88;;;3.30;;
41921;SDS011;27609;51.002;5.354;2022-07-10T04:00:09;6.35;;;3.40;;
41921;SDS011;27609;51.002;5.354;2022-07-10T04:02:35;6.43;;;2.63;;
41921;SDS011;27609;51.002;5.354;2022-07-10T04:05:01;4.00;;;2.88;;
41921;SDS011;27609;51.002;5.354;2022-07-10T04:07:30;5.57;;;3.40;;
41921;SDS011;27609;51.002;5.354;2022-07-10T04:09:56;7.25;;;3.25;;
41921;SDS011;27609;51.002;5.354;2022-07-10T04:12:22;5.63;;;3.10;;
41921;SDS011;27609;51.002;5.354;2022-07-10T04:14:47;6.78;;;3.55;;
41921;SDS011;27609;51.002;5.354;2022-07-10T04:17:16;8.02;;;3.78;;
41921;SDS011;27609;51.002;5.354;2022-07-10T04:19:42;6.15;;;3.25;;
41921;SDS011;27609;51.002;5.354;2022-07-10T04:22:09;7.20;;;2.90;;
41921;SDS011;27609;51.002;5.354;2022-07-10T04:24:34;8.68;;;3.35;;
41921;SDS011;27609;51.002;5.354;2022-07-10T04:27:00;7.40;;;2.72;;
41921;SDS011;27609;51.002;5.354;2022-07-10T04:29:27;8.48;;;3.80;;
41921;SDS011;27609;51.002;5.354;2022-07-10T04:31:53;6.10;;;3.30;;
41921;SDS011;27609;51.002;5.354;2022-07-10T04:34:19;6.43;;;3.45;;
41921;SDS011;27609;51.002;5.354;2022-07-10T04:36:45;6.18;;;3.17;;
41921;SDS011;27609;51.002;5.354;2022-07-10T04:39:10;8.63;;;4.22;;
41921;SDS011;27609;51.002;5.354;2022-07-10T04:41:36;10.82;;;3.90;;
41921;SDS011;27609;51.002;5.354;2022-07-10T04:44:02;8.63;;;4.07;;
41921;SDS011;27609;51.002;5.354;2022-07-10T04:46:28;5.50;;;3.22;;
41921;SDS011;27609;51.002;5.354;2022-07-10T04:48:54;5.15;;;3.13;;
41921;SDS011;27609;51.002;5.354;2022-07-10T04:51:20;6.97;;;3.20;;
41921;SDS011;27609;51.002;5.354;2022-07-10T04:53:47;5.72;;;3.63;;
41921;SDS011;27609;51.002;5.354;2022-07-10T04:56:13;7.95;;;3.40;;
41921;SDS011;27609;51.002;5.354;2022-07-10T04:58:39;6.28;;;3.67;;
41921;SDS011;27609;51.002;5.354;2022-07-10T05:01:05;4.72;;;3.25;;
41921;SDS011;27609;51.002;5.354;2022-07-10T05:03:31;8.40;;;4.10;;
41921;SDS011;27609;51.002;5.354;2022-07-10T05:05:57;9.82;;;4.78;;
41921;SDS011;27609;51.002;5.354;2022-07-10T05:08:23;5.88;;;3.88;;
41921;SDS011;27609;51.002;5.354;2022-07-10T05:10:49;8.88;;;3.83;;
41921;SDS011;27609;51.002;5.354;2022-07-10T05:13:15;6.38;;;3.15;;
41921;SDS011;27609;51.002;5.354;2022-07-10T05:15:40;6.45;;;4.38;;
41921;SDS011;27609;51.002;5.354;2022-07-10T05:18:06;9.70;;;3.20;;
41921;SDS011;27609;51.002;5.354;2022-07-10T05:20:32;7.10;;;3.53;;
41921;SDS011;27609;51.002;5.354;2022-07-10T05:22:59;6.13;;;3.47;;
41921;SDS011;27609;51.002;5.354;2022-07-10T05:25:24;4.60;;;2.88;;
41921;SDS011;27609;51.002;5.354;2022-07-10T05:27:51;6.45;;;3.30;;
41921;SDS011;27609;51.002;5.354;2022-07-10T05:30:17;6.18;;;3.50;;
41921;SDS011;27609;51.002;5.354;2022-07-10T05:32:43;8.40;;;3.70;;
41921;SDS011;27609;51.002;5.354;2022-07-10T05:35:10;8.02;;;3.53;;
41921;SDS011;27609;51.002;5.354;2022-07-10T05:37:37;13.85;;;4.65;;
41921;SDS011;27609;51.002;5.354;2022-07-10T05:40:03;6.93;;;3.53;;
41921;SDS011;27609;51.002;5.354;2022-07-10T05:42:29;7.28;;;3.22;;
41921;SDS011;27609;51.002;5.354;2022-07-10T05:44:55;11.30;;;3.38;;
41921;SDS011;27609;51.002;5.354;2022-07-10T05:47:21;5.05;;;3.10;;
41921;SDS011;27609;51.002;5.354;2022-07-10T05:49:47;5.63;;;3.08;;
41921;SDS011;27609;51.002;5.354;2022-07-10T05:52:13;11.05;;;4.43;;
41921;SDS011;27609;51.002;5.354;2022-07-10T05:54:38;8.73;;;3.15;;
41921;SDS011;27609;51.002;5.354;2022-07-10T05:57:06;5.07;;;3.10;;
41921;SDS011;27609;51.002;5.354;2022-07-10T05:59:34;7.20;;;3.22;;
41921;SDS011;27609;51.002;5.354;2022-07-10T06:02:01;7.65;;;3.22;;
41921;SDS011;27609;51.002;5.354;2022-07-10T06:04:26;7.30;;;3.22;;
41921;SDS011;27609;51.002;5.354;2022-07-10T06:06:52;6.80;;;2.95;;
41921;SDS011;27609;51.002;5.354;2022-07-10T06:09:18;6.72;;;2.88;;
41921;SDS011;27609;51.002;5.354;2022-07-10T06:11:44;9.02;;;2.80;;
41921;SDS011;27609;51.002;5.354;2022-07-10T06:14:11;6.78;;;3.13;;
41921;SDS011;27609;51.002;5.354;2022-07-10T06:16:37;9.20;;;3.55;;
41921;SDS011;27609;51.002;5.354;2022-07-10T06:19:03;6.65;;;2.85;;
41921;SDS011;27609;51.002;5.354;2022-07-10T06:21:29;4.88;;;2.22;;
41921;SDS011;27609;51.002;5.354;2022-07-10T06:23:55;6.30;;;2.45;;
41921;SDS011;27609;51.002;5.354;2022-07-10T06:26:21;10.30;;;2.72;;
41921;SDS011;27609;51.002;5.354;2022-07-10T06:28:46;5.10;;;2.25;;
41921;SDS011;27609;51.002;5.354;2022-07-10T06:31:12;3.90;;;1.85;;
41921;SDS011;27609;51.002;5.354;2022-07-10T06:33:38;6.65;;;2.08;;
41921;SDS011;27609;51.002;5.354;2022-07-10T06:36:04;7.68;;;2.33;;
41921;SDS011;27609;51.002;5.354;2022-07-10T06:38:31;5.60;;;1.73;;
41921;SDS011;27609;51.002;5.354;2022-07-10T06:40:57;5.32;;;2.50;;
41921;SDS011;27609;51.002;5.354;2022-07-10T06:43:22;5.57;;;1.73;;
41921;SDS011;27609;51.002;5.354;2022-07-10T06:45:48;4.43;;;1.90;;
41921;SDS011;27609;51.002;5.354;2022-07-10T06:48:14;2.65;;;1.50;;
41921;SDS011;27609;51.002;5.354;2022-07-10T06:50:41;10.48;;;1.80;;
41921;SDS011;27609;51.002;5.354;2022-07-10T06:53:07;5.93;;;1.83;;
41921;SDS011;27609;51.002;5.354;2022-07-10T06:55:33;5.57;;;1.83;;
41921;SDS011;27609;51.002;5.354;2022-07-10T06:57:59;5.75;;;1.55;;
41921;SDS011;27609;51.002;5.354;2022-07-10T07:00:28;3.00;;;1.57;;
41921;SDS011;27609;51.002;5.354;2022-07-10T07:02:54;4.68;;;1.67;;
41921;SDS011;27609;51.002;5.354;2022-07-10T07:05:20;5.43;;;1.48;;
41921;SDS011;27609;51.002;5.354;2022-07-10T07:07:46;2.92;;;1.23;;
41921;SDS011;27609;51.002;5.354;2022-07-10T07:10:12;3.22;;;1.27;;
41921;SDS011;27609;51.002;5.354;2022-07-10T07:12:38;5.53;;;1.40;;
41921;SDS011;27609;51.002;5.354;2022-07-10T07:15:04;7.72;;;1.75;;
41921;SDS011;27609;51.002;5.354;2022-07-10T07:17:31;3.75;;;1.33;;
41921;SDS011;27609;51.002;5.354;2022-07-10T07:22:55;5.13;;;1.70;;
41921;SDS011;27609;51.002;5.354;2022-07-10T07:25:37;3.97;;;1.50;;
41921;SDS011;27609;51.002;5.354;2022-07-10T07:28:05;5.33;;;1.80;;
41921;SDS011;27609;51.002;5.354;2022-07-10T07:30:31;4.95;;;1.60;;
41921;SDS011;27609;51.002;5.354;2022-07-10T07:32:57;3.15;;;1.60;;
41921;SDS011;27609;51.002;5.354;2022-07-10T07:35:23;2.00;;;1.10;;
41921;SDS011;27609;51.002;5.354;2022-07-10T07:37:50;5.47;;;1.40;;
41921;SDS011;27609;51.002;5.354;2022-07-10T07:40:18;5.70;;;1.30;;
41921;SDS011;27609;51.002;5.354;2022-07-10T07:42:46;4.88;;;1.63;;
41921;SDS011;27609;51.002;5.354;2022-07-10T07:45:12;4.88;;;1.48;;
41921;SDS011;27609;51.002;5.354;2022-07-10T07:50:14;4.10;;;1.35;;
41921;SDS011;27609;51.002;5.354;2022-07-10T07:52:44;3.65;;;1.48;;
41921;SDS011;27609;51.002;5.354;2022-07-10T07:55:11;4.53;;;1.23;;
41921;SDS011;27609;51.002;5.354;2022-07-10T07:57:41;3.72;;;1.30;;
41921;SDS011;27609;51.002;5.354;2022-07-10T08:00:08;4.47;;;1.38;;
41921;SDS011;27609;51.002;5.354;2022-07-10T08:02:36;3.85;;;1.35;;
41921;SDS011;27609;51.002;5.354;2022-07-10T08:05:02;4.65;;;1.30;;
41921;SDS011;27609;51.002;5.354;2022-07-10T08:08:12;6.47;;;1.95;;
41921;SDS011;27609;51.002;5.354;2022-07-10T08:12:47;4.32;;;1.45;;
41921;SDS011;27609;51.002;5.354;2022-07-10T08:15:14;5.70;;;1.30;;
41921;SDS011;27609;51.002;5.354;2022-07-10T08:17:41;5.93;;;1.50;;
41921;SDS011;27609;51.002;5.354;2022-07-10T08:20:10;5.40;;;1.50;;
41921;SDS011;27609;51.002;5.354;2022-07-10T08:22:37;4.85;;;1.27;;
41921;SDS011;27609;51.002;5.354;2022-07-10T08:25:03;7.85;;;1.70;;
41921;SDS011;27609;51.002;5.354;2022-07-10T08:27:29;4.22;;;1.60;;
41921;SDS011;27609;51.002;5.354;2022-07-10T08:29:55;5.25;;;1.40;;
41921;SDS011;27609;51.002;5.354;2022-07-10T08:32:21;5.45;;;1.17;;
41921;SDS011;27609;51.002;5.354;2022-07-10T08:34:47;4.55;;;1.55;;
41921;SDS011;27609;51.002;5.354;2022-07-10T08:37:13;5.45;;;1.60;;
41921;SDS011;27609;51.002;5.354;2022-07-10T08:39:40;3.35;;;1.40;;
41921;SDS011;27609;51.002;5.354;2022-07-10T08:42:08;12.68;;;2.10;;
41921;SDS011;27609;51.002;5.354;2022-07-10T08:44:36;2.50;;;1.30;;
41921;SDS011;27609;51.002;5.354;2022-07-10T08:47:02;3.40;;;1.33;;
41921;SDS011;27609;51.002;5.354;2022-07-10T08:49:30;4.78;;;1.60;;
41921;SDS011;27609;51.002;5.354;2022-07-10T08:51:58;4.03;;;1.38;;
41921;SDS011;27609;51.002;5.354;2022-07-10T08:54:30;4.25;;;1.52;;
41921;SDS011;27609;51.002;5.354;2022-07-10T08:56:57;4.70;;;1.38;;
41921;SDS011;27609;51.002;5.354;2022-07-10T08:59:28;7.22;;;1.48;;
41921;SDS011;27609;51.002;5.354;2022-07-10T09:01:54;8.68;;;1.67;;
41921;SDS011;27609;51.002;5.354;2022-07-10T09:04:21;6.00;;;1.80;;
41921;SDS011;27609;51.002;5.354;2022-07-10T09:06:50;8.15;;;1.48;;
41921;SDS011;27609;51.002;5.354;2022-07-10T09:09:17;4.57;;;1.20;;
41921;SDS011;27609;51.002;5.354;2022-07-10T09:11:43;8.60;;;2.15;;
41921;SDS011;27609;51.002;5.354;2022-07-10T09:14:10;3.45;;;1.65;;
41921;SDS011;27609;51.002;5.354;2022-07-10T09:16:40;4.05;;;1.55;;
41921;SDS011;27609;51.002;5.354;2022-07-10T09:19:18;5.40;;;1.50;;
41921;SDS011;27609;51.002;5.354;2022-07-10T09:21:50;4.05;;;1.20;;
41921;SDS011;27609;51.002;5.354;2022-07-10T09:24:20;4.47;;;1.27;;
41921;SDS011;27609;51.002;5.354;2022-07-10T09:29:19;7.60;;;1.77;;
41921;SDS011;27609;51.002;5.354;2022-07-10T09:31:55;4.68;;;1.25;;
41921;SDS011;27609;51.002;5.354;2022-07-10T09:34:43;4.65;;;1.17;;
41921;SDS011;27609;51.002;5.354;2022-07-10T09:37:26;4.28;;;1.42;;
41921;SDS011;27609;51.002;5.354;2022-07-10T09:39:59;3.80;;;1.40;;
41921;SDS011;27609;51.002;5.354;2022-07-10T09:42:30;5.75;;;1.50;;
41921;SDS011;27609;51.002;5.354;2022-07-10T09:45:29;4.18;;;1.23;;
41921;SDS011;27609;51.002;5.354;2022-07-10T09:50:35;3.10;;;1.38;;
41921;SDS011;27609;51.002;5.354;2022-07-10T09:55:33;3.20;;;1.55;;
41921;SDS011;27609;51.002;5.354;2022-07-10T09:58:00;4.28;;;1.35;;
41921;SDS011;27609;51.002;5.354;2022-07-10T10:00:32;5.70;;;1.60;;
41921;SDS011;27609;51.002;5.354;2022-07-10T10:03:02;5.63;;;1.73;;
41921;SDS011;27609;51.002;5.354;2022-07-10T10:05:36;4.22;;;1.67;;
41921;SDS011;27609;51.002;5.354;2022-07-10T10:08:47;6.65;;;3.38;;
41921;SDS011;27609;51.002;5.354;2022-07-10T10:10:56;6.28;;;2.15;;
41921;SDS011;27609;51.002;5.354;2022-07-10T10:13:24;5.32;;;2.17;;
41921;SDS011;27609;51.002;5.354;2022-07-10T10:15:55;8.98;;;1.60;;
41921;SDS011;27609;51.002;5.354;2022-07-10T10:18:22;5.03;;;1.70;;
41921;SDS011;27609;51.002;5.354;2022-07-10T10:20:52;5.25;;;1.73;;
41921;SDS011;27609;51.002;5.354;2022-07-10T10:23:20;7.88;;;2.08;;
41921;SDS011;27609;51.002;5.354;2022-07-10T10:25:51;7.68;;;1.48;;
41921;SDS011;27609;51.002;5.354;2022-07-10T10:28:19;5.33;;;1.80;;
41921;SDS011;27609;51.002;5.354;2022-07-10T10:30:48;6.50;;;1.83;;
41921;SDS011;27609;51.002;5.354;2022-07-10T10:35:58;5.80;;;1.75;;
41921;SDS011;27609;51.002;5.354;2022-07-10T10:38:30;5.20;;;1.30;;
41921;SDS011;27609;51.002;5.354;2022-07-10T10:41:23;4.18;;;1.60;;
41921;SDS011;27609;51.002;5.354;2022-07-10T10:46:53;5.55;;;1.85;;
41921;SDS011;27609;51.002;5.354;2022-07-10T10:49:27;4.70;;;1.83;;
41921;SDS011;27609;51.002;5.354;2022-07-10T10:52:16;5.75;;;1.52;;
41921;SDS011;27609;51.002;5.354;2022-07-10T10:59:57;4.20;;;1.38;;
41921;SDS011;27609;51.002;5.354;2022-07-10T11:02:32;4.60;;;1.60;;
41921;SDS011;27609;51.002;5.354;2022-07-10T11:10:28;3.95;;;1.38;;
41921;SDS011;27609;51.002;5.354;2022-07-10T11:18:18;3.38;;;1.60;;
41921;SDS011;27609;51.002;5.354;2022-07-10T11:20:49;7.95;;;1.95;;
41921;SDS011;27609;51.002;5.354;2022-07-10T11:26:21;4.18;;;2.10;;
41921;SDS011;27609;51.002;5.354;2022-07-10T11:29:05;4.85;;;1.35;;
41921;SDS011;27609;51.002;5.354;2022-07-10T11:31:31;5.22;;;1.50;;
41921;SDS011;27609;51.002;5.354;2022-07-10T11:34:04;3.95;;;1.92;;
41921;SDS011;27609;51.002;5.354;2022-07-10T11:36:30;4.97;;;1.60;;
41921;SDS011;27609;51.002;5.354;2022-07-10T11:38:59;6.60;;;1.83;;
41921;SDS011;27609;51.002;5.354;2022-07-10T11:41:28;5.10;;;1.63;;
41921;SDS011;27609;51.002;5.354;2022-07-10T11:46:23;5.85;;;1.77;;
41921;SDS011;27609;51.002;5.354;2022-07-10T11:48:54;4.43;;;2.10;;
41921;SDS011;27609;51.002;5.354;2022-07-10T11:51:27;3.88;;;1.42;;
41921;SDS011;27609;51.002;5.354;2022-07-10T11:53:56;6.35;;;2.10;;
41921;SDS011;27609;51.002;5.354;2022-07-10T11:56:22;5.65;;;2.42;;
41921;SDS011;27609;51.002;5.354;2022-07-10T11:58:53;4.70;;;1.92;;
41921;SDS011;27609;51.002;5.354;2022-07-10T12:01:26;4.05;;;1.98;;
41921;SDS011;27609;51.002;5.354;2022-07-10T12:03:57;2.97;;;1.80;;
41921;SDS011;27609;51.002;5.354;2022-07-10T12:06:23;3.80;;;1.80;;
41921;SDS011;27609;51.002;5.354;2022-07-10T12:08:50;6.50;;;1.60;;
41921;SDS011;27609;51.002;5.354;2022-07-10T12:11:16;5.25;;;1.88;;
41921;SDS011;27609;51.002;5.354;2022-07-10T12:13:44;4.22;;;2.30;;
41921;SDS011;27609;51.002;5.354;2022-07-10T12:16:10;5.63;;;2.20;;
41921;SDS011;27609;51.002;5.354;2022-07-10T12:18:36;4.07;;;2.00;;
41921;SDS011;27609;51.002;5.354;2022-07-10T12:21:03;5.00;;;2.15;;
41921;SDS011;27609;51.002;5.354;2022-07-10T12:23:29;9.77;;;2.33;;
41921;SDS011;27609;51.002;5.354;2022-07-10T12:25:55;3.42;;;1.92;;
41921;SDS011;27609;51.002;5.354;2022-07-10T12:28:21;3.63;;;1.80;;
41921;SDS011;27609;51.002;5.354;2022-07-10T12:30:48;6.45;;;1.77;;
41921;SDS011;27609;51.002;5.354;2022-07-10T12:33:16;5.38;;;2.28;;
41921;SDS011;27609;51.002;5.354;2022-07-10T12:35:53;5.63;;;2.05;;
41921;SDS011;27609;51.002;5.354;2022-07-10T12:38:20;4.43;;;1.98;;
41921;SDS011;27609;51.002;5.354;2022-07-10T12:40:48;6.93;;;2.05;;
41921;SDS011;27609;51.002;5.354;2022-07-10T12:43:27;5.00;;;2.17;;
41921;SDS011;27609;51.002;5.354;2022-07-10T12:46:13;3.53;;;1.75;;
41921;SDS011;27609;51.002;5.354;2022-07-10T12:48:59;4.13;;;1.92;;
41921;SDS011;27609;51.002;5.354;2022-07-10T12:54:07;4.70;;;1.75;;
41921;SDS011;27609;51.002;5.354;2022-07-10T12:59:00;5.28;;;1.63;;
41921;SDS011;27609;51.002;5.354;2022-07-10T13:01:39;3.50;;;1.98;;
41921;SDS011;27609;51.002;5.354;2022-07-10T13:04:07;3.92;;;1.70;;
41921;SDS011;27609;51.002;5.354;2022-07-10T13:06:34;6.35;;;1.90;;
41921;SDS011;27609;51.002;5.354;2022-07-10T13:09:01;3.97;;;1.83;;
41921;SDS011;27609;51.002;5.354;2022-07-10T13:11:28;7.07;;;1.67;;
41921;SDS011;27609;51.002;5.354;2022-07-10T13:13:54;3.80;;;1.80;;
41921;SDS011;27609;51.002;5.354;2022-07-10T13:16:21;3.88;;;1.83;;
41921;SDS011;27609;51.002;5.354;2022-07-10T13:18:47;4.40;;;1.60;;
41921;SDS011;27609;51.002;5.354;2022-07-10T13:21:13;2.95;;;1.38;;
41921;SDS011;27609;51.002;5.354;2022-07-10T13:23:39;3.35;;;1.48;;
41921;SDS011;27609;51.002;5.354;2022-07-10T13:26:05;3.88;;;1.40;;
41921;SDS011;27609;51.002;5.354;2022-07-10T13:28:34;7.88;;;2.15;;
41921;SDS011;27609;51.002;5.354;2022-07-10T13:31:00;5.45;;;2.22;;
41921;SDS011;27609;51.002;5.354;2022-07-10T13:33:26;4.32;;;1.77;;
41921;SDS011;27609;51.002;5.354;2022-07-10T13:35:53;4.88;;;1.95;;
41921;SDS011;27609;51.002;5.354;2022-07-10T13:38:19;2.03;;;1.30;;
41921;SDS011;27609;51.002;5.354;2022-07-10T13:40:45;3.25;;;1.83;;
41921;SDS011;27609;51.002;5.354;2022-07-10T13:43:12;7.53;;;1.35;;
41921;SDS011;27609;51.002;5.354;2022-07-10T13:45:41;4.95;;;1.60;;
41921;SDS011;27609;51.002;5.354;2022-07-10T13:48:10;13.60;;;4.30;;
41921;SDS011;27609;51.002;5.354;2022-07-10T13:50:37;3.72;;;1.40;;
41921;SDS011;27609;51.002;5.354;2022-07-10T13:53:04;6.18;;;2.20;;
41921;SDS011;27609;51.002;5.354;2022-07-10T13:55:30;4.35;;;1.60;;
41921;SDS011;27609;51.002;5.354;2022-07-10T13:57:58;5.55;;;2.00;;
41921;SDS011;27609;51.002;5.354;2022-07-10T14:00:24;4.70;;;1.90;;
41921;SDS011;27609;51.002;5.354;2022-07-10T14:02:50;5.25;;;1.70;;
41921;SDS011;27609;51.002;5.354;2022-07-10T14:05:16;4.45;;;1.10;;
41921;SDS011;27609;51.002;5.354;2022-07-10T14:07:42;4.43;;;1.65;;
41921;SDS011;27609;51.002;5.354;2022-07-10T14:10:08;2.65;;;1.02;;
41921;SDS011;27609;51.002;5.354;2022-07-10T14:12:34;4.20;;;1.25;;
41921;SDS011;27609;51.002;5.354;2022-07-10T14:14:59;2.92;;;1.20;;
41921;SDS011;27609;51.002;5.354;2022-07-10T14:17:25;3.15;;;1.38;;
41921;SDS011;27609;51.002;5.354;2022-07-10T14:19:53;2.33;;;1.77;;
41921;SDS011;27609;51.002;5.354;2022-07-10T14:22:18;6.35;;;1.35;;
41921;SDS011;27609;51.002;5.354;2022-07-10T14:24:44;3.95;;;1.70;;
41921;SDS011;27609;51.002;5.354;2022-07-10T14:27:10;3.15;;;1.27;;
41921;SDS011;27609;51.002;5.354;2022-07-10T14:29:36;3.67;;;1.42;;
41921;SDS011;27609;51.002;5.354;2022-07-10T14:32:02;7.88;;;1.48;;
41921;SDS011;27609;51.002;5.354;2022-07-10T14:34:28;2.65;;;1.30;;
41921;SDS011;27609;51.002;5.354;2022-07-10T14:36:55;4.60;;;1.60;;
41921;SDS011;27609;51.002;5.354;2022-07-10T14:39:22;3.28;;;1.50;;
41921;SDS011;27609;51.002;5.354;2022-07-10T14:41:47;2.40;;;1.30;;
41921;SDS011;27609;51.002;5.354;2022-07-10T14:44:13;1.60;;;1.17;;
41921;SDS011;27609;51.002;5.354;2022-07-10T14:46:39;3.13;;;1.27;;
41921;SDS011;27609;51.002;5.354;2022-07-10T14:49:05;3.35;;;1.10;;
41921;SDS011;27609;51.002;5.354;2022-07-10T14:51:31;4.38;;;1.33;;
41921;SDS011;27609;51.002;5.354;2022-07-10T14:54:00;3.90;;;1.35;;
41921;SDS011;27609;51.002;5.354;2022-07-10T14:56:25;5.18;;;1.13;;
41921;SDS011;27609;51.002;5.354;2022-07-10T14:58:51;4.03;;;1.42;;
41921;SDS011;27609;51.002;5.354;2022-07-10T15:01:17;6.22;;;1.48;;
41921;SDS011;27609;51.002;5.354;2022-07-10T15:03:43;4.60;;;2.17;;
41921;SDS011;27609;51.002;5.354;2022-07-10T15:06:09;4.50;;;3.47;;
41921;SDS011;27609;51.002;5.354;2022-07-10T15:08:35;7.00;;;2.58;;
41921;SDS011;27609;51.002;5.354;2022-07-10T15:11:01;4.75;;;1.70;;
41921;SDS011;27609;51.002;5.354;2022-07-10T15:13:28;5.22;;;1.38;;
41921;SDS011;27609;51.002;5.354;2022-07-10T15:15:54;4.50;;;1.58;;
41921;SDS011;27609;51.002;5.354;2022-07-10T15:18:20;4.25;;;1.75;;
41921;SDS011;27609;51.002;5.354;2022-07-10T15:20:46;3.28;;;1.40;;
41921;SDS011;27609;51.002;5.354;2022-07-10T15:23:12;3.88;;;1.63;;
41921;SDS011;27609;51.002;5.354;2022-07-10T15:25:39;2.78;;;1.55;;
41921;SDS011;27609;51.002;5.354;2022-07-10T15:28:06;7.53;;;2.67;;
41921;SDS011;27609;51.002;5.354;2022-07-10T15:30:33;4.78;;;1.60;;
41921;SDS011;27609;51.002;5.354;2022-07-10T15:33:00;3.03;;;1.30;;
41921;SDS011;27609;51.002;5.354;2022-07-10T15:35:26;3.58;;;1.50;;
41921;SDS011;27609;51.002;5.354;2022-07-10T15:37:52;5.00;;;3.42;;
41921;SDS011;27609;51.002;5.354;2022-07-10T15:40:17;50.20;;;32.53;;